Orlando, FL

8:08 AM EST on December 27, 2014 (GMT -0500)
Audubon Park | Change Station
CLOSE
Current Station
Personal Weather Station
Location: Orlando, FL
Elevation: 112 ft
Nearby Weather Stations

Elev 112 ft 28.56 °N, 81.34 °W | Updated 13 seconds ago

Scattered Clouds
Scattered Clouds
62.6 °F
Feels Like 62.6 °F
N
2.7
Wind Variable Wind from NE
Gusts 2.7 mph

Today
High -- | Low -- °F
--% Chance of Precip.
Yesterday
High -- | Low -- °F
Precip. -- in
7:16 AM 5:36 PM
Waxing Crescent, 36% visible
Pressure 30.26 in
Visibility 10.0 miles
Clouds Scattered Clouds 2500 ft
Dew Point 62 °F
Humidity 99%
Rainfall 0.00 in
Snow Depth Not available.
UV 0 out of 12
Pollen 7.80 out of 12
Air Quality Not available.
Flu Activity Not available.
METAR KORL 271253Z 36003KT 10SM SCT025 18/16 A3025 RMK AO2 SLP247 T01780161

More Conditions Fewer Conditions

Pressure 30.26 in
Visibility 10.0 miles
Clouds Scattered Clouds 2500 ft
Dew Point 62 °F
Humidity 99%
Rainfall 0.00 in
Snow Depth Not available.
UV 0 out of 12
Pollen 7.80 out of 12
Air Quality Not available.
Flu Activity Not available.
METAR KORL 271253Z 36003KT 10SM SCT025 18/16 A3025 RMK AO2 SLP247 T01780161

More Conditions Fewer Conditions

10-Day Weather Forecast

Almanac

Astronomy

Dec. 27, 2014 Rise Set
Actual Time
Civil Twilight
Nautical Twilight
Astronomical Twilight
Moon
Length of Visible Light
Length of Day
Tomorrow will be .
, % of the Moon is Illuminated

Today's Extremes

State Highs State Lows

Community

WunderPhotos

Upload Photos

1,780,890 photos uploaded!

WunderBlogs® & News

Nearby

Air Quality

  Air Quality AQ Index Pollutant
Not available.

Snow Depth

Station Depth Elevation

Earthquake Activity

City Distance Mag. Time & Date
Minimum magnitude displayed is 2.5.

Coastal Water Temperatures

Place Temperature

Nearby Weather Stations